Terminal Aerodrome Forecast
Issued by NWS Jackson, MS

Home | Current Version | Previous Version | Text Only | Print | Product List | Glossary On
Versions: 1 2 3 4 5 6 7 8 9 10 11 12 13 14 15 16 17 18 19
000
FTUS44 KJAN 271742
TAFMEI
TAF
KMEI 271742Z 2718/2818 15008KT P6SM SCT030 BKN040
     FM271900 17006KT P6SM VCTS BKN035CB
      TEMPO 2720/2722 19020G30KT TSRA OVC030CB
     FM280000 00000KT 6SM BR BKN250
     FM281000 15003KT 3SM BR OVC005
     FM281500 15004KT P6SM BKN020=

USA.gov is the U.S. government's official web portal to all federal, state and local government web resources and services.